sensor_id;sensor_type;location;lat;lon;timestamp;P1;durP1;ratioP1;P2;durP2;ratioP2
10191;SDS011;17580;50.850;4.504;2024-01-11T00:02:12;28.10;;;14.37;;
10191;SDS011;17580;50.850;4.504;2024-01-11T00:04:39;24.17;;;14.37;;
10191;SDS011;17580;50.850;4.504;2024-01-11T00:07:08;25.50;;;14.93;;
10191;SDS011;17580;50.850;4.504;2024-01-11T00:09:39;26.40;;;15.03;;
10191;SDS011;17580;50.850;4.504;2024-01-11T00:12:07;25.10;;;15.17;;
10191;SDS011;17580;50.850;4.504;2024-01-11T00:14:34;25.57;;;13.33;;
10191;SDS011;17580;50.850;4.504;2024-01-11T00:17:01;23.83;;;14.37;;
10191;SDS011;17580;50.850;4.504;2024-01-11T00:19:28;23.53;;;14.07;;
10191;SDS011;17580;50.850;4.504;2024-01-11T00:21:56;21.30;;;13.93;;
10191;SDS011;17580;50.850;4.504;2024-01-11T00:24:24;22.90;;;14.00;;
10191;SDS011;17580;50.850;4.504;2024-01-11T00:26:52;23.27;;;14.63;;
10191;SDS011;17580;50.850;4.504;2024-01-11T00:29:19;24.90;;;15.13;;
10191;SDS011;17580;50.850;4.504;2024-01-11T00:31:47;24.43;;;13.77;;
10191;SDS011;17580;50.850;4.504;2024-01-11T00:34:14;21.57;;;13.20;;
10191;SDS011;17580;50.850;4.504;2024-01-11T00:36:41;23.47;;;13.50;;
10191;SDS011;17580;50.850;4.504;2024-01-11T00:39:08;24.53;;;13.30;;
10191;SDS011;17580;50.850;4.504;2024-01-11T00:41:36;23.27;;;13.83;;
10191;SDS011;17580;50.850;4.504;2024-01-11T00:44:05;21.47;;;13.77;;
10191;SDS011;17580;50.850;4.504;2024-01-11T00:46:33;28.43;;;12.87;;
10191;SDS011;17580;50.850;4.504;2024-01-11T00:49:00;23.87;;;13.70;;
10191;SDS011;17580;50.850;4.504;2024-01-11T00:51:27;20.43;;;12.67;;
10191;SDS011;17580;50.850;4.504;2024-01-11T00:53:54;23.17;;;14.23;;
10191;SDS011;17580;50.850;4.504;2024-01-11T00:56:22;20.33;;;12.70;;
10191;SDS011;17580;50.850;4.504;2024-01-11T00:58:49;18.40;;;12.70;;
10191;SDS011;17580;50.850;4.504;2024-01-11T01:01:17;23.23;;;12.80;;
10191;SDS011;17580;50.850;4.504;2024-01-11T01:03:45;21.60;;;13.70;;
10191;SDS011;17580;50.850;4.504;2024-01-11T01:06:12;25.27;;;13.90;;
10191;SDS011;17580;50.850;4.504;2024-01-11T01:08:39;24.57;;;14.53;;
10191;SDS011;17580;50.850;4.504;2024-01-11T01:11:06;20.07;;;12.83;;
10191;SDS011;17580;50.850;4.504;2024-01-11T01:13:33;23.27;;;12.83;;
10191;SDS011;17580;50.850;4.504;2024-01-11T01:16:01;22.30;;;13.33;;
10191;SDS011;17580;50.850;4.504;2024-01-11T01:18:29;28.53;;;13.73;;
10191;SDS011;17580;50.850;4.504;2024-01-11T01:20:57;23.10;;;13.03;;
10191;SDS011;17580;50.850;4.504;2024-01-11T01:23:24;22.70;;;13.57;;
10191;SDS011;17580;50.850;4.504;2024-01-11T01:25:51;22.87;;;13.77;;
10191;SDS011;17580;50.850;4.504;2024-01-11T01:28:18;23.43;;;13.77;;
10191;SDS011;17580;50.850;4.504;2024-01-11T01:30:45;23.77;;;13.83;;
10191;SDS011;17580;50.850;4.504;2024-01-11T01:33:12;24.03;;;13.63;;
10191;SDS011;17580;50.850;4.504;2024-01-11T01:35:41;23.03;;;14.13;;
10191;SDS011;17580;50.850;4.504;2024-01-11T01:38:08;25.17;;;13.83;;
10191;SDS011;17580;50.850;4.504;2024-01-11T01:40:36;22.63;;;13.93;;
10191;SDS011;17580;50.850;4.504;2024-01-11T01:43:06;24.77;;;14.33;;
10191;SDS011;17580;50.850;4.504;2024-01-11T01:45:34;23.13;;;14.10;;
10191;SDS011;17580;50.850;4.504;2024-01-11T01:48:02;23.60;;;13.37;;
10191;SDS011;17580;50.850;4.504;2024-01-11T01:50:29;23.13;;;14.27;;
10191;SDS011;17580;50.850;4.504;2024-01-11T01:52:58;27.03;;;14.50;;
10191;SDS011;17580;50.850;4.504;2024-01-11T01:55:25;25.70;;;14.70;;
10191;SDS011;17580;50.850;4.504;2024-01-11T01:57:53;21.23;;;13.50;;
10191;SDS011;17580;50.850;4.504;2024-01-11T02:00:20;22.33;;;12.87;;
10191;SDS011;17580;50.850;4.504;2024-01-11T02:02:50;23.80;;;12.63;;
10191;SDS011;17580;50.850;4.504;2024-01-11T02:05:18;24.07;;;13.60;;
10191;SDS011;17580;50.850;4.504;2024-01-11T02:07:45;24.03;;;13.90;;
10191;SDS011;17580;50.850;4.504;2024-01-11T02:10:14;21.80;;;13.63;;
10191;SDS011;17580;50.850;4.504;2024-01-11T02:12:41;22.60;;;13.43;;
10191;SDS011;17580;50.850;4.504;2024-01-11T02:15:09;26.20;;;13.90;;
10191;SDS011;17580;50.850;4.504;2024-01-11T02:17:36;22.80;;;14.37;;
10191;SDS011;17580;50.850;4.504;2024-01-11T02:20:03;27.30;;;15.17;;
10191;SDS011;17580;50.850;4.504;2024-01-11T02:22:38;27.53;;;13.47;;
10191;SDS011;17580;50.850;4.504;2024-01-11T02:25:17;22.70;;;14.00;;
10191;SDS011;17580;50.850;4.504;2024-01-11T02:27:45;24.00;;;14.20;;
10191;SDS011;17580;50.850;4.504;2024-01-11T02:30:13;23.80;;;14.03;;
10191;SDS011;17580;50.850;4.504;2024-01-11T02:32:40;23.33;;;14.47;;
10191;SDS011;17580;50.850;4.504;2024-01-11T02:35:07;24.53;;;14.17;;
10191;SDS011;17580;50.850;4.504;2024-01-11T02:37:36;22.00;;;14.33;;
10191;SDS011;17580;50.850;4.504;2024-01-11T02:40:04;21.47;;;13.40;;
10191;SDS011;17580;50.850;4.504;2024-01-11T02:42:33;26.13;;;14.30;;
10191;SDS011;17580;50.850;4.504;2024-01-11T02:45:00;24.00;;;13.50;;
10191;SDS011;17580;50.850;4.504;2024-01-11T02:47:29;25.97;;;14.13;;
10191;SDS011;17580;50.850;4.504;2024-01-11T02:49:56;22.17;;;13.43;;
10191;SDS011;17580;50.850;4.504;2024-01-11T02:52:23;23.50;;;13.70;;
10191;SDS011;17580;50.850;4.504;2024-01-11T02:54:51;25.57;;;14.37;;
10191;SDS011;17580;50.850;4.504;2024-01-11T02:57:18;22.90;;;13.87;;
10191;SDS011;17580;50.850;4.504;2024-01-11T02:59:46;25.47;;;14.60;;
10191;SDS011;17580;50.850;4.504;2024-01-11T03:02:14;22.87;;;13.77;;
10191;SDS011;17580;50.850;4.504;2024-01-11T03:04:41;26.97;;;14.17;;
10191;SDS011;17580;50.850;4.504;2024-01-11T03:07:08;22.07;;;13.27;;
10191;SDS011;17580;50.850;4.504;2024-01-11T03:09:36;27.50;;;14.43;;
10191;SDS011;17580;50.850;4.504;2024-01-11T03:12:03;23.03;;;13.93;;
10191;SDS011;17580;50.850;4.504;2024-01-11T03:14:32;23.60;;;13.87;;
10191;SDS011;17580;50.850;4.504;2024-01-11T03:17:00;28.03;;;14.13;;
10191;SDS011;17580;50.850;4.504;2024-01-11T03:19:28;22.73;;;12.37;;
10191;SDS011;17580;50.850;4.504;2024-01-11T03:21:55;21.97;;;13.70;;
10191;SDS011;17580;50.850;4.504;2024-01-11T03:24:22;23.77;;;14.43;;
10191;SDS011;17580;50.850;4.504;2024-01-11T03:26:49;23.97;;;14.87;;
10191;SDS011;17580;50.850;4.504;2024-01-11T03:29:17;24.90;;;14.43;;
10191;SDS011;17580;50.850;4.504;2024-01-11T03:31:44;24.70;;;13.60;;
10191;SDS011;17580;50.850;4.504;2024-01-11T03:34:12;24.33;;;14.10;;
10191;SDS011;17580;50.850;4.504;2024-01-11T03:36:40;21.03;;;14.37;;
10191;SDS011;17580;50.850;4.504;2024-01-11T03:39:07;25.20;;;14.57;;
10191;SDS011;17580;50.850;4.504;2024-01-11T03:41:34;23.63;;;13.90;;
10191;SDS011;17580;50.850;4.504;2024-01-11T03:44:01;21.63;;;12.93;;
10191;SDS011;17580;50.850;4.504;2024-01-11T03:46:29;23.80;;;14.10;;
10191;SDS011;17580;50.850;4.504;2024-01-11T03:48:56;22.50;;;13.63;;
10191;SDS011;17580;50.850;4.504;2024-01-11T03:51:27;22.43;;;13.50;;
10191;SDS011;17580;50.850;4.504;2024-01-11T03:53:54;23.43;;;14.43;;
10191;SDS011;17580;50.850;4.504;2024-01-11T03:56:21;21.97;;;13.63;;
10191;SDS011;17580;50.850;4.504;2024-01-11T03:58:49;25.07;;;13.50;;
10191;SDS011;17580;50.850;4.504;2024-01-11T04:01:16;22.73;;;13.13;;
10191;SDS011;17580;50.850;4.504;2024-01-11T04:03:44;24.80;;;13.70;;
10191;SDS011;17580;50.850;4.504;2024-01-11T04:06:18;22.10;;;13.60;;
10191;SDS011;17580;50.850;4.504;2024-01-11T04:08:47;26.07;;;13.13;;
10191;SDS011;17580;50.850;4.504;2024-01-11T04:11:14;22.67;;;13.23;;
10191;SDS011;17580;50.850;4.504;2024-01-11T04:13:42;20.37;;;14.10;;
10191;SDS011;17580;50.850;4.504;2024-01-11T04:16:09;24.47;;;14.70;;
10191;SDS011;17580;50.850;4.504;2024-01-11T04:18:36;24.43;;;13.33;;
10191;SDS011;17580;50.850;4.504;2024-01-11T04:21:03;24.23;;;15.37;;
10191;SDS011;17580;50.850;4.504;2024-01-11T04:23:31;29.53;;;16.63;;
10191;SDS011;17580;50.850;4.504;2024-01-11T04:25:59;26.83;;;14.37;;
10191;SDS011;17580;50.850;4.504;2024-01-11T04:28:26;22.43;;;13.20;;
10191;SDS011;17580;50.850;4.504;2024-01-11T04:30:54;24.00;;;15.17;;
10191;SDS011;17580;50.850;4.504;2024-01-11T04:33:21;21.63;;;12.63;;
10191;SDS011;17580;50.850;4.504;2024-01-11T04:35:48;23.47;;;15.07;;
10191;SDS011;17580;50.850;4.504;2024-01-11T04:38:15;25.50;;;14.57;;
10191;SDS011;17580;50.850;4.504;2024-01-11T04:40:43;27.37;;;13.87;;
10191;SDS011;17580;50.850;4.504;2024-01-11T04:43:11;23.60;;;13.73;;
10191;SDS011;17580;50.850;4.504;2024-01-11T04:45:38;25.83;;;13.73;;
10191;SDS011;17580;50.850;4.504;2024-01-11T04:48:06;23.63;;;14.40;;
10191;SDS011;17580;50.850;4.504;2024-01-11T04:50:33;21.60;;;13.23;;
10191;SDS011;17580;50.850;4.504;2024-01-11T04:53:00;24.40;;;13.87;;
10191;SDS011;17580;50.850;4.504;2024-01-11T04:55:27;21.93;;;13.63;;
10191;SDS011;17580;50.850;4.504;2024-01-11T04:57:54;22.07;;;12.90;;
10191;SDS011;17580;50.850;4.504;2024-01-11T05:00:23;27.30;;;15.07;;
10191;SDS011;17580;50.850;4.504;2024-01-11T05:02:50;25.03;;;13.13;;
10191;SDS011;17580;50.850;4.504;2024-01-11T05:05:17;22.27;;;13.73;;
10191;SDS011;17580;50.850;4.504;2024-01-11T05:07:45;23.77;;;13.20;;
10191;SDS011;17580;50.850;4.504;2024-01-11T05:10:12;25.83;;;13.73;;
10191;SDS011;17580;50.850;4.504;2024-01-11T05:12:39;19.43;;;12.60;;
10191;SDS011;17580;50.850;4.504;2024-01-11T05:15:07;20.53;;;13.50;;
10191;SDS011;17580;50.850;4.504;2024-01-11T05:17:34;24.17;;;15.07;;
10191;SDS011;17580;50.850;4.504;2024-01-11T05:20:02;25.47;;;13.63;;
10191;SDS011;17580;50.850;4.504;2024-01-11T05:22:29;29.00;;;15.20;;
10191;SDS011;17580;50.850;4.504;2024-01-11T05:24:56;24.00;;;13.33;;
10191;SDS011;17580;50.850;4.504;2024-01-11T05:27:23;21.87;;;12.90;;
10191;SDS011;17580;50.850;4.504;2024-01-11T05:29:50;22.77;;;12.27;;
10191;SDS011;17580;50.850;4.504;2024-01-11T05:32:18;24.03;;;13.83;;
10191;SDS011;17580;50.850;4.504;2024-01-11T05:34:47;24.57;;;14.80;;
10191;SDS011;17580;50.850;4.504;2024-01-11T05:37:14;25.53;;;13.50;;
10191;SDS011;17580;50.850;4.504;2024-01-11T05:39:41;21.43;;;14.83;;
10191;SDS011;17580;50.850;4.504;2024-01-11T05:42:08;25.80;;;14.37;;
10191;SDS011;17580;50.850;4.504;2024-01-11T05:44:35;21.60;;;13.63;;
10191;SDS011;17580;50.850;4.504;2024-01-11T05:47:03;25.33;;;15.87;;
10191;SDS011;17580;50.850;4.504;2024-01-11T05:49:30;24.23;;;15.53;;
10191;SDS011;17580;50.850;4.504;2024-01-11T05:51:58;25.07;;;15.03;;
10191;SDS011;17580;50.850;4.504;2024-01-11T05:54:26;26.00;;;15.90;;
10191;SDS011;17580;50.850;4.504;2024-01-11T05:56:53;27.33;;;14.90;;
10191;SDS011;17580;50.850;4.504;2024-01-11T05:59:21;23.30;;;14.37;;
10191;SDS011;17580;50.850;4.504;2024-01-11T06:01:48;27.37;;;14.63;;
10191;SDS011;17580;50.850;4.504;2024-01-11T06:04:16;29.03;;;14.87;;
10191;SDS011;17580;50.850;4.504;2024-01-11T06:06:43;25.80;;;16.75;;
10191;SDS011;17580;50.850;4.504;2024-01-11T06:09:11;25.03;;;15.00;;
10191;SDS011;17580;50.850;4.504;2024-01-11T06:11:39;27.30;;;15.40;;
10191;SDS011;17580;50.850;4.504;2024-01-11T06:14:06;19.90;;;12.77;;
10191;SDS011;17580;50.850;4.504;2024-01-11T06:16:33;26.73;;;15.57;;
10191;SDS011;17580;50.850;4.504;2024-01-11T06:19:00;21.53;;;13.67;;
10191;SDS011;17580;50.850;4.504;2024-01-11T06:21:28;23.97;;;15.43;;
10191;SDS011;17580;50.850;4.504;2024-01-11T06:23:55;25.63;;;14.73;;
10191;SDS011;17580;50.850;4.504;2024-01-11T06:26:23;26.20;;;15.67;;
10191;SDS011;17580;50.850;4.504;2024-01-11T06:28:51;25.07;;;14.43;;
10191;SDS011;17580;50.850;4.504;2024-01-11T06:31:18;25.03;;;15.20;;
10191;SDS011;17580;50.850;4.504;2024-01-11T06:33:45;27.03;;;15.47;;
10191;SDS011;17580;50.850;4.504;2024-01-11T06:36:12;26.73;;;14.53;;
10191;SDS011;17580;50.850;4.504;2024-01-11T06:38:39;23.00;;;13.50;;
10191;SDS011;17580;50.850;4.504;2024-01-11T06:41:07;28.73;;;14.17;;
10191;SDS011;17580;50.850;4.504;2024-01-11T06:43:35;24.33;;;14.00;;
10191;SDS011;17580;50.850;4.504;2024-01-11T06:46:03;23.73;;;14.53;;
10191;SDS011;17580;50.850;4.504;2024-01-11T06:48:30;25.40;;;13.73;;
10191;SDS011;17580;50.850;4.504;2024-01-11T06:50:57;23.93;;;13.77;;
10191;SDS011;17580;50.850;4.504;2024-01-11T06:53:25;24.60;;;14.40;;
10191;SDS011;17580;50.850;4.504;2024-01-11T06:55:52;23.57;;;13.47;;
10191;SDS011;17580;50.850;4.504;2024-01-11T06:58:20;23.80;;;13.63;;
10191;SDS011;17580;50.850;4.504;2024-01-11T07:00:49;26.07;;;14.50;;
10191;SDS011;17580;50.850;4.504;2024-01-11T07:03:16;23.87;;;14.27;;
10191;SDS011;17580;50.850;4.504;2024-01-11T07:05:44;24.77;;;14.60;;
10191;SDS011;17580;50.850;4.504;2024-01-11T07:08:11;22.30;;;13.23;;
10191;SDS011;17580;50.850;4.504;2024-01-11T07:10:38;24.43;;;14.03;;
10191;SDS011;17580;50.850;4.504;2024-01-11T07:13:06;25.17;;;13.67;;
10191;SDS011;17580;50.850;4.504;2024-01-11T07:15:35;23.20;;;13.63;;
10191;SDS011;17580;50.850;4.504;2024-01-11T07:18:04;29.93;;;14.23;;
10191;SDS011;17580;50.850;4.504;2024-01-11T07:20:31;24.17;;;15.30;;
10191;SDS011;17580;50.850;4.504;2024-01-11T07:22:58;23.50;;;14.07;;
10191;SDS011;17580;50.850;4.504;2024-01-11T07:25:26;28.67;;;14.73;;
10191;SDS011;17580;50.850;4.504;2024-01-11T07:27:53;29.37;;;16.00;;
10191;SDS011;17580;50.850;4.504;2024-01-11T07:30:20;21.97;;;13.13;;
10191;SDS011;17580;50.850;4.504;2024-01-11T07:32:47;22.03;;;13.47;;
10191;SDS011;17580;50.850;4.504;2024-01-11T07:35:16;25.93;;;14.83;;
10191;SDS011;17580;50.850;4.504;2024-01-11T07:37:43;26.30;;;14.97;;
10191;SDS011;17580;50.850;4.504;2024-01-11T07:40:10;24.90;;;15.43;;
10191;SDS011;17580;50.850;4.504;2024-01-11T07:42:38;21.20;;;14.03;;
10191;SDS011;17580;50.850;4.504;2024-01-11T07:45:06;24.97;;;13.90;;
10191;SDS011;17580;50.850;4.504;2024-01-11T07:47:35;31.43;;;16.13;;
10191;SDS011;17580;50.850;4.504;2024-01-11T07:50:02;23.60;;;15.03;;
10191;SDS011;17580;50.850;4.504;2024-01-11T07:52:33;27.53;;;15.03;;
10191;SDS011;17580;50.850;4.504;2024-01-11T07:55:00;23.03;;;15.13;;
10191;SDS011;17580;50.850;4.504;2024-01-11T07:57:32;24.80;;;15.33;;
10191;SDS011;17580;50.850;4.504;2024-01-11T07:59:59;23.97;;;14.83;;
10191;SDS011;17580;50.850;4.504;2024-01-11T08:02:28;25.40;;;14.13;;
10191;SDS011;17580;50.850;4.504;2024-01-11T08:04:55;24.63;;;14.97;;
10191;SDS011;17580;50.850;4.504;2024-01-11T08:07:23;24.67;;;14.53;;
10191;SDS011;17580;50.850;4.504;2024-01-11T08:09:52;26.73;;;15.33;;
10191;SDS011;17580;50.850;4.504;2024-01-11T08:12:19;24.23;;;14.67;;
10191;SDS011;17580;50.850;4.504;2024-01-11T08:14:46;25.00;;;15.20;;
10191;SDS011;17580;50.850;4.504;2024-01-11T08:17:14;22.47;;;13.87;;
10191;SDS011;17580;50.850;4.504;2024-01-11T08:19:41;27.77;;;15.83;;
10191;SDS011;17580;50.850;4.504;2024-01-11T08:22:09;24.20;;;15.30;;
10191;SDS011;17580;50.850;4.504;2024-01-11T08:24:36;27.93;;;15.87;;
10191;SDS011;17580;50.850;4.504;2024-01-11T08:27:05;27.07;;;17.83;;
10191;SDS011;17580;50.850;4.504;2024-01-11T08:29:32;29.70;;;17.93;;
10191;SDS011;17580;50.850;4.504;2024-01-11T08:31:59;27.57;;;17.10;;
10191;SDS011;17580;50.850;4.504;2024-01-11T08:34:29;38.77;;;25.33;;
10191;SDS011;17580;50.850;4.504;2024-01-11T08:36:56;34.03;;;21.40;;
10191;SDS011;17580;50.850;4.504;2024-01-11T08:39:23;60.83;;;38.57;;
10191;SDS011;17580;50.850;4.504;2024-01-11T08:41:51;45.90;;;28.50;;
10191;SDS011;17580;50.850;4.504;2024-01-11T08:44:19;59.27;;;39.50;;
10191;SDS011;17580;50.850;4.504;2024-01-11T08:46:46;37.37;;;22.93;;
10191;SDS011;17580;50.850;4.504;2024-01-11T08:49:14;29.27;;;17.17;;
10191;SDS011;17580;50.850;4.504;2024-01-11T08:51:41;33.50;;;19.60;;
10191;SDS011;17580;50.850;4.504;2024-01-11T08:54:08;33.47;;;20.30;;
10191;SDS011;17580;50.850;4.504;2024-01-11T08:56:36;35.93;;;21.50;;
10191;SDS011;17580;50.850;4.504;2024-01-11T08:59:05;38.30;;;22.13;;
10191;SDS011;17580;50.850;4.504;2024-01-11T09:01:35;28.67;;;17.83;;
10191;SDS011;17580;50.850;4.504;2024-01-11T09:04:02;30.70;;;18.40;;
10191;SDS011;17580;50.850;4.504;2024-01-11T09:06:30;30.47;;;18.23;;
10191;SDS011;17580;50.850;4.504;2024-01-11T09:08:58;30.30;;;19.73;;
10191;SDS011;17580;50.850;4.504;2024-01-11T09:11:25;31.70;;;18.47;;
10191;SDS011;17580;50.850;4.504;2024-01-11T09:13:53;26.53;;;17.10;;
10191;SDS011;17580;50.850;4.504;2024-01-11T09:16:20;30.07;;;17.90;;
10191;SDS011;17580;50.850;4.504;2024-01-11T09:18:49;30.87;;;18.70;;
10191;SDS011;17580;50.850;4.504;2024-01-11T09:21:16;31.03;;;17.93;;
10191;SDS011;17580;50.850;4.504;2024-01-11T09:23:43;27.47;;;17.00;;
10191;SDS011;17580;50.850;4.504;2024-01-11T09:26:10;32.63;;;19.03;;
10191;SDS011;17580;50.850;4.504;2024-01-11T09:28:38;29.10;;;17.63;;
10191;SDS011;17580;50.850;4.504;2024-01-11T09:31:05;25.37;;;17.30;;
10191;SDS011;17580;50.850;4.504;2024-01-11T09:33:32;28.90;;;16.67;;
10191;SDS011;17580;50.850;4.504;2024-01-11T09:36:01;29.57;;;17.83;;
10191;SDS011;17580;50.850;4.504;2024-01-11T09:38:28;29.50;;;17.77;;
10191;SDS011;17580;50.850;4.504;2024-01-11T09:40:58;30.37;;;18.60;;
10191;SDS011;17580;50.850;4.504;2024-01-11T09:43:28;27.47;;;17.83;;
10191;SDS011;17580;50.850;4.504;2024-01-11T09:45:55;29.77;;;19.67;;
10191;SDS011;17580;50.850;4.504;2024-01-11T09:48:23;30.73;;;19.97;;
10191;SDS011;17580;50.850;4.504;2024-01-11T09:50:51;29.77;;;20.10;;
10191;SDS011;17580;50.850;4.504;2024-01-11T09:53:20;27.70;;;19.97;;
10191;SDS011;17580;50.850;4.504;2024-01-11T09:55:49;35.63;;;24.53;;
10191;SDS011;17580;50.850;4.504;2024-01-11T09:58:17;50.63;;;36.60;;
10191;SDS011;17580;50.850;4.504;2024-01-11T10:00:45;39.87;;;26.97;;
10191;SDS011;17580;50.850;4.504;2024-01-11T10:03:14;37.00;;;23.93;;
10191;SDS011;17580;50.850;4.504;2024-01-11T10:05:41;42.33;;;31.17;;
10191;SDS011;17580;50.850;4.504;2024-01-11T10:08:09;38.77;;;25.67;;
10191;SDS011;17580;50.850;4.504;2024-01-11T10:10:38;40.50;;;29.00;;
10191;SDS011;17580;50.850;4.504;2024-01-11T10:13:05;48.03;;;33.70;;
10191;SDS011;17580;50.850;4.504;2024-01-11T10:15:33;80.57;;;61.47;;
10191;SDS011;17580;50.850;4.504;2024-01-11T10:18:00;40.53;;;30.23;;
10191;SDS011;17580;50.850;4.504;2024-01-11T10:20:27;34.53;;;23.70;;
10191;SDS011;17580;50.850;4.504;2024-01-11T10:22:57;29.17;;;20.90;;
10191;SDS011;17580;50.850;4.504;2024-01-11T10:25:24;33.73;;;23.67;;
10191;SDS011;17580;50.850;4.504;2024-01-11T10:27:53;28.57;;;20.20;;
10191;SDS011;17580;50.850;4.504;2024-01-11T10:30:20;29.33;;;20.87;;
10191;SDS011;17580;50.850;4.504;2024-01-11T10:32:49;29.63;;;21.30;;
10191;SDS011;17580;50.850;4.504;2024-01-11T10:35:16;34.00;;;24.80;;
10191;SDS011;17580;50.850;4.504;2024-01-11T10:37:44;33.50;;;23.23;;
10191;SDS011;17580;50.850;4.504;2024-01-11T10:40:11;32.00;;;23.43;;
10191;SDS011;17580;50.850;4.504;2024-01-11T10:42:41;36.30;;;26.57;;
10191;SDS011;17580;50.850;4.504;2024-01-11T10:45:14;38.67;;;27.00;;
10191;SDS011;17580;50.850;4.504;2024-01-11T10:47:50;38.00;;;23.50;;
10191;SDS011;17580;50.850;4.504;2024-01-11T10:50:18;30.30;;;21.37;;
10191;SDS011;17580;50.850;4.504;2024-01-11T10:52:50;45.93;;;33.60;;
10191;SDS011;17580;50.850;4.504;2024-01-11T10:55:18;29.97;;;21.93;;
10191;SDS011;17580;50.850;4.504;2024-01-11T10:57:46;31.80;;;22.73;;
10191;SDS011;17580;50.850;4.504;2024-01-11T11:00:16;37.60;;;24.90;;
10191;SDS011;17580;50.850;4.504;2024-01-11T11:02:44;33.87;;;24.10;;
10191;SDS011;17580;50.850;4.504;2024-01-11T11:05:12;26.13;;;19.97;;
10191;SDS011;17580;50.850;4.504;2024-01-11T11:07:40;31.93;;;23.30;;
10191;SDS011;17580;50.850;4.504;2024-01-11T11:10:08;30.70;;;24.73;;
10191;SDS011;17580;50.850;4.504;2024-01-11T11:12:36;41.83;;;33.73;;
10191;SDS011;17580;50.850;4.504;2024-01-11T11:15:04;30.90;;;22.53;;
10191;SDS011;17580;50.850;4.504;2024-01-11T11:17:33;30.37;;;24.03;;
10191;SDS011;17580;50.850;4.504;2024-01-11T11:20:02;37.30;;;26.43;;
10191;SDS011;17580;50.850;4.504;2024-01-11T11:22:33;31.67;;;25.27;;
10191;SDS011;17580;50.850;4.504;2024-01-11T11:25:04;28.90;;;21.87;;
10191;SDS011;17580;50.850;4.504;2024-01-11T11:27:33;26.90;;;20.10;;
10191;SDS011;17580;50.850;4.504;2024-01-11T11:30:00;27.40;;;20.70;;
10191;SDS011;17580;50.850;4.504;2024-01-11T11:32:38;29.10;;;20.37;;
10191;SDS011;17580;50.850;4.504;2024-01-11T11:35:09;26.23;;;18.87;;
10191;SDS011;17580;50.850;4.504;2024-01-11T11:37:36;28.23;;;20.03;;
10191;SDS011;17580;50.850;4.504;2024-01-11T11:40:04;26.20;;;18.83;;
10191;SDS011;17580;50.850;4.504;2024-01-11T11:42:32;29.73;;;19.50;;
10191;SDS011;17580;50.850;4.504;2024-01-11T11:45:01;33.23;;;25.70;;
10191;SDS011;17580;50.850;4.504;2024-01-11T11:47:32;31.20;;;23.77;;
10191;SDS011;17580;50.850;4.504;2024-01-11T11:50:05;48.57;;;36.83;;
10191;SDS011;17580;50.850;4.504;2024-01-11T11:52:32;37.93;;;24.63;;
10191;SDS011;17580;50.850;4.504;2024-01-11T11:55:00;66.47;;;51.90;;
10191;SDS011;17580;50.850;4.504;2024-01-11T11:57:28;70.77;;;51.87;;
10191;SDS011;17580;50.850;4.504;2024-01-11T11:59:56;35.07;;;27.87;;
10191;SDS011;17580;50.850;4.504;2024-01-11T12:02:24;25.60;;;19.53;;
10191;SDS011;17580;50.850;4.504;2024-01-11T12:04:52;57.13;;;43.87;;
10191;SDS011;17580;50.850;4.504;2024-01-11T12:07:21;28.27;;;22.43;;
10191;SDS011;17580;50.850;4.504;2024-01-11T12:09:48;28.23;;;22.47;;
10191;SDS011;17580;50.850;4.504;2024-01-11T12:12:16;27.93;;;20.40;;
10191;SDS011;17580;50.850;4.504;2024-01-11T12:14:45;40.07;;;29.07;;
10191;SDS011;17580;50.850;4.504;2024-01-11T12:17:14;41.30;;;32.47;;
10191;SDS011;17580;50.850;4.504;2024-01-11T12:19:41;28.10;;;20.03;;
10191;SDS011;17580;50.850;4.504;2024-01-11T12:22:08;24.07;;;17.47;;
10191;SDS011;17580;50.850;4.504;2024-01-11T12:24:37;30.93;;;21.87;;
10191;SDS011;17580;50.850;4.504;2024-01-11T12:27:04;33.33;;;23.53;;
10191;SDS011;17580;50.850;4.504;2024-01-11T12:29:31;50.03;;;33.87;;
10191;SDS011;17580;50.850;4.504;2024-01-11T12:31:59;23.97;;;18.90;;
10191;SDS011;17580;50.850;4.504;2024-01-11T12:34:26;34.80;;;24.23;;
10191;SDS011;17580;50.850;4.504;2024-01-11T12:36:54;27.40;;;20.00;;
10191;SDS011;17580;50.850;4.504;2024-01-11T12:39:25;50.27;;;38.00;;
10191;SDS011;17580;50.850;4.504;2024-01-11T12:41:55;27.90;;;17.87;;
10191;SDS011;17580;50.850;4.504;2024-01-11T12:44:23;25.13;;;19.30;;
10191;SDS011;17580;50.850;4.504;2024-01-11T12:46:50;30.00;;;17.73;;
10191;SDS011;17580;50.850;4.504;2024-01-11T12:49:18;34.60;;;24.47;;
10191;SDS011;17580;50.850;4.504;2024-01-11T12:51:46;51.40;;;32.90;;
10191;SDS011;17580;50.850;4.504;2024-01-11T12:54:13;32.67;;;23.37;;
10191;SDS011;17580;50.850;4.504;2024-01-11T12:56:44;27.63;;;20.10;;
10191;SDS011;17580;50.850;4.504;2024-01-11T12:59:13;54.13;;;39.13;;
10191;SDS011;17580;50.850;4.504;2024-01-11T13:01:41;48.63;;;35.63;;
10191;SDS011;17580;50.850;4.504;2024-01-11T13:04:09;32.90;;;24.43;;
10191;SDS011;17580;50.850;4.504;2024-01-11T13:06:36;26.97;;;19.90;;
10191;SDS011;17580;50.850;4.504;2024-01-11T13:09:03;32.93;;;23.83;;
10191;SDS011;17580;50.850;4.504;2024-01-11T13:11:33;24.13;;;16.90;;
10191;SDS011;17580;50.850;4.504;2024-01-11T13:14:00;24.83;;;19.20;;
10191;SDS011;17580;50.850;4.504;2024-01-11T13:16:33;24.07;;;16.63;;
10191;SDS011;17580;50.850;4.504;2024-01-11T13:19:00;27.03;;;19.63;;
10191;SDS011;17580;50.850;4.504;2024-01-11T13:21:27;36.63;;;24.13;;
10191;SDS011;17580;50.850;4.504;2024-01-11T13:23:54;30.53;;;21.03;;
10191;SDS011;17580;50.850;4.504;2024-01-11T13:26:22;20.57;;;15.33;;
10191;SDS011;17580;50.850;4.504;2024-01-11T13:28:49;21.73;;;15.80;;
10191;SDS011;17580;50.850;4.504;2024-01-11T13:31:17;22.73;;;17.63;;
10191;SDS011;17580;50.850;4.504;2024-01-11T13:33:47;20.30;;;15.43;;
10191;SDS011;17580;50.850;4.504;2024-01-11T13:36:15;27.27;;;19.53;;
10191;SDS011;17580;50.850;4.504;2024-01-11T13:38:42;25.77;;;17.77;;
10191;SDS011;17580;50.850;4.504;2024-01-11T13:41:09;25.37;;;19.83;;
10191;SDS011;17580;50.850;4.504;2024-01-11T13:43:36;26.93;;;21.93;;
10191;SDS011;17580;50.850;4.504;2024-01-11T13:46:04;23.00;;;18.70;;
10191;SDS011;17580;50.850;4.504;2024-01-11T13:48:31;48.40;;;31.43;;
10191;SDS011;17580;50.850;4.504;2024-01-11T13:51:00;45.47;;;33.97;;
10191;SDS011;17580;50.850;4.504;2024-01-11T13:53:28;38.13;;;24.97;;
10191;SDS011;17580;50.850;4.504;2024-01-11T13:55:55;23.53;;;18.30;;
10191;SDS011;17580;50.850;4.504;2024-01-11T13:58:23;23.97;;;17.27;;
10191;SDS011;17580;50.850;4.504;2024-01-11T14:00:50;23.23;;;17.53;;
10191;SDS011;17580;50.850;4.504;2024-01-11T14:03:17;21.53;;;16.33;;
10191;SDS011;17580;50.850;4.504;2024-01-11T14:05:44;20.07;;;14.80;;
10191;SDS011;17580;50.850;4.504;2024-01-11T14:08:14;19.00;;;12.87;;
10191;SDS011;17580;50.850;4.504;2024-01-11T14:10:41;23.83;;;17.40;;
10191;SDS011;17580;50.850;4.504;2024-01-11T14:13:08;33.30;;;19.70;;
10191;SDS011;17580;50.850;4.504;2024-01-11T14:15:35;21.73;;;15.97;;
10191;SDS011;17580;50.850;4.504;2024-01-11T14:18:03;43.37;;;32.07;;
10191;SDS011;17580;50.850;4.504;2024-01-11T14:20:30;52.00;;;38.27;;
10191;SDS011;17580;50.850;4.504;2024-01-11T14:22:59;36.77;;;27.60;;
10191;SDS011;17580;50.850;4.504;2024-01-11T14:25:27;24.07;;;16.50;;